Time;durP1;ratioP1;P1;durP2;ratioP2;P2;SDS_P1;SDS_P2;PMS_P1;PMS_P2;Temp;Humidity;BMP_temperature;BMP_pressure;BME280_temperature;BME280_humidity;BME280_pressure;Samples;Min_cycle;Max_cycle;Signal;HPM_P1;HPM_P2
2022/05/15 00:02:25;;;;;;;12.35;4.60;;;16.20;74.10;;;;;;5061348;28;20556;-91
2022/05/15 00:04:56;;;;;;;13.77;4.53;;;16.20;74.20;;;;;;5043552;28;20079;-91
2022/05/15 00:07:27;;;;;;;12.98;4.63;;;16.10;74.30;;;;;;5042526;28;20112;-89
2022/05/15 00:10:04;;;;;;;;;;;;;;;;;;;;;
2022/05/15 00:12:35;;;;;;;11.20;3.65;;;16.10;74.80;;;;;;5075844;28;20056;-88
2022/05/15 00:15:11;;;;;;;;;;;16.00;74.90;;;;;;5064257;28;20025;-89
2022/05/15 00:17:46;;;;;;;11.18;4.32;;;16.00;74.90;;;;;;5063647;28;19912;-91
2022/05/15 00:20:32;;;;;;;13.73;3.92;;;16.00;74.90;;;;;;5042576;28;20021;-90
2022/05/15 00:23:18;;;;;;;15.15;4.30;;;15.90;75.00;;;;;;5038139;28;20057;-88
2022/05/15 00:25:59;;;;;;;;;;;;;;;;;;;;;
2022/05/15 00:28:28;;;;;;;13.00;4.30;;;15.90;75.30;;;;;;5040500;28;20112;-90
2022/05/15 00:31:06;;;;;;;15.00;4.68;;;15.90;75.30;;;;;;5041479;28;20040;-92
2022/05/15 00:33:35;;;;;;;13.18;4.28;;;15.80;75.40;;;;;;5023854;28;20061;-90
2022/05/15 00:36:06;;;;;;;12.70;4.65;;;15.80;75.40;;;;;;5021643;28;20072;-90
2022/05/15 00:38:40;;;;;;;15.52;4.63;;;15.80;75.50;;;;;;5023121;28;20450;-89
2022/05/15 00:41:25;;;;;;;;;;;;;;;;;;;;;
2022/05/15 00:44:23;;;;;;;;;;;;;;;;;;;;;
2022/05/15 00:46:59;;;;;;;15.23;5.05;;;15.80;75.80;;;;;;5025561;28;20077;-90
2022/05/15 00:52:58;;;;;;;13.02;4.35;;;15.70;76.50;;;;;;5040788;28;20033;-90
2022/05/15 00:55:59;;;;;;;12.20;4.28;;;15.70;76.00;;;;;;5038837;28;20053;-90
2022/05/15 00:58:48;;;;;;;;;;;;;;;;;;;;;
2022/05/15 01:01:18;;;;;;;11.23;4.43;;;15.70;76.70;;;;;;5040464;28;20036;-90
2022/05/15 01:03:59;;;;;;;14.60;4.88;;;15.60;76.20;;;;;;5023520;28;20025;-91
2022/05/15 01:06:31;;;;;;;17.70;5.25;;;15.50;76.30;;;;;;5008135;28;20029;-89
2022/05/15 01:09:00;;;;;;;13.57;4.50;;;15.50;76.60;;;;;;5024205;28;20025;-89
2022/05/15 01:11:27;;;;;;;13.43;4.60;;;15.40;76.80;;;;;;5023505;28;20060;-90
2022/05/15 01:13:56;;;;;;;14.15;4.50;;;15.40;76.90;;;;;;5023225;28;20038;-90
2022/05/15 01:16:27;;;;;;;15.57;4.50;;;15.40;77.00;;;;;;5023074;28;20063;-90
2022/05/15 01:19:03;;;;;;;13.25;4.75;;;15.40;77.10;;;;;;5022361;28;20053;-90
2022/05/15 01:22:01;;;;;;;13.82;3.97;;;15.30;77.30;;;;;;5023903;28;20026;-90
2022/05/15 01:24:32;;;;;;;14.50;4.90;;;15.30;77.50;;;;;;5018594;28;20057;-90
2022/05/15 01:27:20;;;;;;;14.90;5.00;;;15.30;77.50;;;;;;5017885;28;20049;-91
2022/05/15 01:29:53;;;;;;;13.90;4.70;;;15.20;77.70;;;;;;5003732;28;20030;-90
2022/05/15 01:32:29;;;;;;;12.30;4.53;;;15.20;77.70;;;;;;5021071;28;20033;-90
2022/05/15 01:35:02;;;;;;;14.07;4.72;;;15.20;77.80;;;;;;5004245;28;20051;-90
2022/05/15 01:37:28;;;;;;;11.75;4.35;;;15.20;77.90;;;;;;5018463;28;20080;-90
2022/05/15 01:40:09;;;;;;;11.32;4.50;;;15.20;77.90;;;;;;5019444;28;20030;-90
2022/05/15 01:42:41;;;;;;;12.55;4.55;;;15.20;78.00;;;;;;5010693;28;20465;-89
2022/05/15 01:45:20;;;;;;;17.10;4.97;;;15.10;78.00;;;;;;5039032;28;20055;-90
2022/05/15 01:47:49;;;;;;;12.90;4.95;;;15.10;78.00;;;;;;5021769;28;20018;-91
2022/05/15 01:50:22;;;;;;;13.73;4.80;;;15.10;78.00;;;;;;5019320;28;20118;-89
2022/05/15 01:52:59;;;;;;;14.05;4.63;;;15.10;78.10;;;;;;5019864;28;20045;-91
2022/05/15 01:55:28;;;;;;;10.10;4.60;;;15.00;78.20;;;;;;5018620;28;20030;-90
2022/05/15 01:58:24;;;;;;;15.55;4.75;;;15.00;78.30;;;;;;5018639;28;20092;-90
2022/05/15 02:00:53;;;;;;;13.77;4.00;;;15.00;79.00;;;;;;5023813;28;20014;-89
2022/05/15 02:03:46;;;;;;;14.18;4.10;;;15.00;78.40;;;;;;5028312;28;20026;-91
2022/05/15 02:06:28;;;;;;;13.73;4.60;;;14.90;78.70;;;;;;5057779;28;20071;-91
2022/05/15 02:08:57;;;;;;;12.43;4.70;;;14.90;78.70;;;;;;5044028;28;20010;-89
2022/05/15 02:11:31;;;;;;;12.38;4.40;;;14.80;78.70;;;;;;5031349;28;20033;-89
2022/05/15 02:14:02;;;;;;;11.18;3.80;;;14.80;78.90;;;;;;5023064;28;20088;-89
2022/05/15 02:16:28;;;;;;;11.85;4.45;;;14.80;79.00;;;;;;5019847;28;20053;-90
2022/05/15 02:19:17;;;;;;;11.52;3.85;;;14.80;79.00;;;;;;5019015;28;20029;-91
2022/05/15 02:21:58;;;;;;;;;;;;;;;;;;;;;
2022/05/15 02:24:31;;;;;;;12.05;4.50;;;14.80;79.30;;;;;;5018762;28;20141;-91
2022/05/15 02:27:00;;;;;;;11.23;4.00;;;14.70;79.30;;;;;;5022169;28;20048;-89
2022/05/15 02:29:41;;;;;;;14.52;4.82;;;14.70;79.40;;;;;;5022411;28;20101;-89
2022/05/15 02:32:34;;;;;;;12.55;4.28;;;14.70;79.50;;;;;;5037942;28;20041;-91
2022/05/15 02:35:14;;;;;;;12.23;3.80;;;14.70;79.60;;;;;;5037866;28;20024;-90
2022/05/15 02:37:53;;;;;;;18.50;4.70;;;14.70;79.50;;;;;;5024069;28;20025;-90
2022/05/15 02:40:39;;;;;;;;;;;;;;;;;;;;;
2022/05/15 02:43:09;;;;;;;11.82;4.10;;;14.60;79.70;;;;;;5039608;28;20089;-89
2022/05/15 02:45:45;;;;;;;;;;;;;;;;;;;;;
2022/05/15 02:51:03;;;;;;;15.32;4.90;;;14.50;80.10;;;;;;5018870;28;20100;-92
2022/05/15 02:53:36;;;;;;;12.00;4.18;;;14.50;80.40;;;;;;5017776;28;20033;-88
2022/05/15 02:56:19;;;;;;;14.20;4.72;;;14.40;80.40;;;;;;5017205;28;20026;-91
2022/05/15 02:59:33;;;;;;;12.63;4.80;;;14.40;80.70;;;;;;5002495;28;20045;-91
2022/05/15 03:02:01;;;;;;;12.15;4.38;;;14.40;80.70;;;;;;5018175;28;20042;-91
2022/05/15 03:04:31;;;;;;;12.32;4.47;;;14.40;80.70;;;;;;5017703;28;20022;-89
2022/05/15 03:07:00;;;;;;;12.77;4.07;;;14.40;80.80;;;;;;5007304;28;20091;-89
2022/05/15 03:09:31;;;;;;;11.07;4.28;;;14.40;80.80;;;;;;5036946;28;20036;-90
2022/05/15 03:11:59;;;;;;;13.32;4.78;;;14.40;80.80;;;;;;5021478;28;20033;-91
2022/05/15 03:14:45;;;;;;;15.48;4.55;;;14.40;80.90;;;;;;5021014;28;20026;-91
2022/05/15 03:17:34;;;;;;;12.82;4.55;;;14.40;81.20;;;;;;5036454;28;20473;-89
2022/05/15 03:20:29;;;;;;;12.52;4.60;;;14.40;81.10;;;;;;5036227;28;20049;-88
2022/05/15 03:22:58;;;;;;;14.15;4.45;;;14.30;81.10;;;;;;5039896;28;20022;-89
2022/05/15 03:25:27;;;;;;;13.50;5.20;;;14.30;81.20;;;;;;5036897;28;20123;-90
2022/05/15 03:28:04;;;;;;;14.65;5.05;;;14.30;81.30;;;;;;5036474;28;20025;-89
2022/05/15 03:30:30;;;;;;;10.85;4.20;;;14.30;81.50;;;;;;5036795;28;20056;-89
2022/05/15 03:33:36;;;;;;;12.32;4.68;;;14.20;81.50;;;;;;5038093;28;20021;-90
2022/05/15 03:36:10;;;;;;;14.15;4.50;;;14.20;81.80;;;;;;5038880;28;20021;-90
2022/05/15 03:38:52;;;;;;;12.32;4.63;;;14.20;81.70;;;;;;5030768;28;20022;-91
2022/05/15 03:41:48;;;;;;;;;;;;;;;;;;;;;
2022/05/15 03:44:15;;;;;;;12.88;4.70;;;14.20;81.80;;;;;;5019617;28;20561;-89
2022/05/15 03:46:57;;;;;;;14.95;4.63;;;14.20;81.70;;;;;;5029014;28;20002;-88
2022/05/15 03:49:31;;;;;;;13.40;4.68;;;14.20;81.70;;;;;;5038037;28;20022;-92
2022/05/15 03:52:17;;;;;;;13.30;4.38;;;14.20;81.80;;;;;;5037421;28;20127;-89
2022/05/15 03:55:13;;;;;;;12.55;4.82;;;14.20;81.80;;;;;;5021087;28;20021;-92
2022/05/15 03:57:55;;;;;;;16.27;4.82;;;14.20;81.80;;;;;;5018872;28;20090;-90
2022/05/15 04:00:31;;;;;;;13.40;5.18;;;14.20;81.80;;;;;;5017664;28;20045;-89
2022/05/15 04:03:00;;;;;;;12.32;5.05;;;14.10;81.80;;;;;;5017766;28;20427;-88
2022/05/15 04:05:37;;;;;;;;;;;;;;;;;;;;;
2022/05/15 04:08:20;;;;;;;16.48;5.18;;;14.20;81.90;;;;;;5018734;28;20086;-90
2022/05/15 04:10:52;;;;;;;13.48;4.60;;;14.20;81.90;;;;;;5029976;28;20072;-87
2022/05/15 04:13:27;;;;;;;16.75;5.05;;;14.10;81.90;;;;;;5035808;28;20029;-89
2022/05/15 04:16:14;;;;;;;15.60;5.38;;;14.10;81.90;;;;;;5020386;28;20029;-88
2022/05/15 04:18:43;;;;;;;11.35;4.72;;;14.10;82.10;;;;;;5021918;28;20049;-89
2022/05/15 04:21:10;;;;;;;14.52;5.00;;;14.10;82.10;;;;;;5018629;28;20038;-91
2022/05/15 04:24:12;;;;;;;;;;;;;;;;;;;;;
2022/05/15 04:26:51;;;;;;;;;;;;;;;;;;;;;
2022/05/15 04:29:21;;;;;;;15.25;4.97;;;14.10;82.20;;;;;;5041783;28;20101;-91
2022/05/15 04:31:57;;;;;;;12.05;4.50;;;14.10;82.30;;;;;;5043354;28;20354;-91
2022/05/15 04:34:29;;;;;;;14.88;4.78;;;14.10;82.30;;;;;;5044271;28;20354;-90
2022/05/15 04:37:01;;;;;;;12.05;4.22;;;14.10;82.50;;;;;;5026584;28;20033;-92
2022/05/15 04:39:46;;;;;;;;;;;;;;;;;;;;;
2022/05/15 04:42:25;;;;;;;;;;;;;;;;;;;;;
2022/05/15 04:45:09;;;;;;;;;;;;;;;;;;;;;
2022/05/15 04:47:54;;;;;;;12.02;5.25;;;14.10;82.70;;;;;;5041571;28;20093;-89
2022/05/15 04:50:31;;;;;;;15.90;4.65;;;14.10;82.80;;;;;;5009014;28;20030;-90
2022/05/15 04:53:18;;;;;;;;;;;;;;;;;;;;;
2022/05/15 04:56:04;;;;;;;;;;;;;;;;;;;;;
2022/05/15 04:58:56;;;;;;;14.77;4.90;;;14.10;83.10;;;;;;5041706;28;20120;-90
2022/05/15 05:01:42;;;;;;;;;;;;;;;;;;;;;
2022/05/15 05:04:21;;;;;;;14.30;4.78;;;14.10;83.20;;;;;;5010123;28;20132;-91
2022/05/15 05:06:51;;;;;;;16.05;4.97;;;14.10;83.20;;;;;;5007797;28;20038;-90
2022/05/15 05:09:39;;;;;;;13.48;4.90;;;14.10;83.20;;;;;;5025140;28;20033;-91
2022/05/15 05:12:11;;;;;;;12.63;4.88;;;14.10;83.40;;;;;;5022112;28;20033;-91
2022/05/15 05:14:47;;;;;;;12.95;5.20;;;14.10;83.40;;;;;;5039530;28;20025;-90
2022/05/15 05:18:02;;;;;;;12.50;4.63;;;14.10;83.40;;;;;;5043380;28;20041;-89
2022/05/15 05:20:32;;;;;;;16.48;5.13;;;14.10;83.50;;;;;;5059412;28;20040;-89
2022/05/15 05:23:08;;;;;;;14.52;5.47;;;14.10;83.50;;;;;;5060144;28;20021;-90
2022/05/15 05:25:45;;;;;;;14.55;4.70;;;14.10;83.50;;;;;;5019631;28;20054;-91
2022/05/15 05:28:29;;;;;;;;;;;;;;;;;;;;;
2022/05/15 05:31:11;;;;;;;10.95;4.78;;;14.20;84.20;;;;;;5025191;28;20038;-90
2022/05/15 05:33:40;;;;;;;12.75;4.85;;;14.20;83.50;;;;;;5037655;28;20026;-90
2022/05/15 05:36:17;;;;;;;14.18;5.00;;;14.20;83.60;;;;;;5059068;28;20029;-90
2022/05/15 05:39:24;;;;;;;;;;;;;;;;;;;;;
2022/05/15 05:41:55;;;;;;;10.60;4.90;;;14.20;83.60;;;;;;5026022;28;20105;-89
2022/05/15 05:44:24;;;;;;;14.55;5.05;;;14.30;83.60;;;;;;5021118;28;20026;-90
2022/05/15 05:47:18;;;;;;;;;;;;;;;;;;;;;
2022/05/15 05:50:11;;;;;;;;;;;14.40;83.60;;;;;;5041240;28;20079;-91
2022/05/15 05:53:05;;;;;;;12.38;4.13;;;14.40;83.50;;;;;;5024505;28;19919;-90
2022/05/15 05:55:53;;;;;;;12.70;4.55;;;14.40;83.50;;;;;;5038789;28;20033;-91
2022/05/15 05:58:41;;;;;;;;;;;;;;;;;;;;;
2022/05/15 06:01:18;;;;;;;15.90;4.50;;;14.50;83.50;;;;;;5031130;28;20436;-90
2022/05/15 06:06:54;;;;;;;12.93;4.47;;;14.50;83.50;;;;;;5029141;28;20110;-91
2022/05/15 06:09:28;;;;;;;9.55;4.30;;;14.60;83.50;;;;;;5019454;28;20080;-88
2022/05/15 06:12:22;;;;;;;12.60;4.63;;;14.60;83.50;;;;;;5002830;28;20401;-89
2022/05/15 06:14:48;;;;;;;13.07;5.18;;;14.60;83.60;;;;;;5018675;28;20116;-89
2022/05/15 06:17:30;;;;;;;;;;;;;;;;;;;;;
2022/05/15 06:20:52;;;;;;;12.68;5.18;;;14.70;83.60;;;;;;5019759;28;20118;-90
2022/05/15 06:23:34;;;;;;;11.90;4.63;;;14.70;83.60;;;;;;5019237;28;20547;-90
2022/05/15 06:26:20;;;;;;;13.35;4.75;;;14.80;83.60;;;;;;5017483;28;20046;-90
2022/05/15 06:29:39;;;;;;;;;;;;;;;;;;;;;
2022/05/15 06:32:14;;;;;;;13.68;5.25;;;14.90;83.50;;;;;;5005729;28;20120;-89
2022/05/15 06:34:43;;;;;;;13.23;5.28;;;14.90;83.50;;;;;;5018364;28;20026;-88
2022/05/15 06:37:30;;;;;;;13.98;5.03;;;15.00;83.50;;;;;;5004244;28;20034;-91
2022/05/15 06:40:12;;;;;;;12.50;5.20;;;15.00;83.50;;;;;;5019107;28;20470;-89
2022/05/15 06:42:57;;;;;;;;;;;;;;;;;;;;;
2022/05/15 06:45:42;;;;;;;15.13;5.25;;;15.20;83.40;;;;;;5019296;28;20435;-88
2022/05/15 06:51:12;;;;;;;13.75;4.70;;;15.30;83.30;;;;;;5037634;28;20044;-89
2022/05/15 06:53:49;;;;;;;9.85;4.28;;;15.40;83.30;;;;;;5037775;28;20017;-90
2022/05/15 06:59:38;;;;;;;;;;;;;;;;;;;;;
2022/05/15 07:02:10;;;;;;;;;;;15.60;83.00;;;;;;5038734;28;20030;-91
2022/05/15 07:04:55;;;;;;;9.63;4.32;;;15.70;82.90;;;;;;5039791;28;20003;-91
2022/05/15 07:07:56;;;;;;;12.95;4.45;;;15.70;82.90;;;;;;5006527;28;20128;-92
2022/05/15 07:11:14;;;;;;;;;;;;;;;;;;;;;
2022/05/15 07:14:14;;;;;;;;;;;;;;;;;;;;;
2022/05/15 07:16:54;;;;;;;11.00;4.90;;;16.00;82.80;;;;;;5022849;28;20116;-90
2022/05/15 07:19:56;;;;;;;;;;;;;;;;;;;;;
2022/05/15 07:22:41;;;;;;;10.45;4.55;;;16.20;82.60;;;;;;5037170;28;20022;-91
2022/05/15 07:25:22;;;;;;;10.82;4.53;;;16.30;82.40;;;;;;5035955;28;20075;-91
2022/05/15 07:28:25;;;;;;;12.18;4.82;;;16.40;83.00;;;;;;5036510;28;20050;-91
2022/05/15 07:31:10;;;;;;;9.88;4.82;;;16.50;82.30;;;;;;5039959;28;20029;-91
2022/05/15 07:34:03;;;;;;;13.20;4.90;;;16.60;82.20;;;;;;5025636;28;20461;-90
2022/05/15 07:37:04;;;;;;;;;;;;;;;;;;;;;
2022/05/15 07:39:52;;;;;;;10.90;4.95;;;16.80;82.00;;;;;;5039543;28;20088;-91
2022/05/15 07:42:36;;;;;;;;;;;;;;;;;;;;;
2022/05/15 07:45:37;;;;;;;10.55;4.65;;;16.90;81.70;;;;;;5037134;28;20129;-90
2022/05/15 07:49:48;;;;;;;11.43;5.15;;;17.00;82.30;;;;;;5025733;28;20030;-92
2022/05/15 07:52:24;;;;;;;;;;;;;;;;;;;;;
2022/05/15 07:58:37;;;;;;;7.05;4.18;;;17.30;81.40;;;;;;4967451;28;20023;-92
2022/05/15 08:01:35;;;;;;;7.93;4.25;;;17.40;81.20;;;;;;4958560;28;20035;-91
2022/05/15 08:11:11;;;;;;;;;;;;;;;;;;;;;
2022/05/15 08:14:15;;;;;;;;;;;;;;;;;;;;;
2022/05/15 08:17:18;;;;;;;;;;;;;;;;;;;;;
2022/05/15 08:24:15;;;;;;;;;;;;;;;;;;;;;
2022/05/15 08:30:35;;;;;;;;;;;;;;;;;;;;;
2022/05/15 08:33:26;;;;;;;9.82;5.22;;;18.40;79.80;;;;;;4983468;28;20087;-93
2022/05/15 08:36:44;;;;;;;;;;;;;;;;;;;;;
2022/05/15 08:39:42;;;;;;;9.25;4.35;;;18.60;79.30;;;;;;5030212;28;20097;-96
2022/05/15 08:52:30;;;;;;;;;;;;;;;;;;;;;
2022/05/15 08:55:31;;;;;;;;;;;;;;;;;;;;;
2022/05/15 08:58:54;;;;;;;;;;;;;;;;;;;;;
2022/05/15 09:02:06;;;;;;;9.65;3.92;;;19.40;78.10;;;;;;5007456;28;20102;-92
2022/05/15 09:12:09;;;;;;;9.25;4.25;;;19.60;77.30;;;;;;4985574;28;20022;-95
2022/05/15 09:15:42;;;;;;;6.50;3.63;;;19.70;76.80;;;;;;4998914;28;20042;-93
2022/05/15 09:21:28;;;;;;;9.73;4.50;;;19.90;75.90;;;;;;5024813;28;20028;-95
2022/05/15 09:28:18;;;;;;;;;;;;;;;;;;;;;
2022/05/15 09:31:28;;;;;;;10.65;3.97;;;20.30;75.00;;;;;;5035360;28;20112;-93
2022/05/15 09:34:54;;;;;;;7.78;3.28;;;20.30;74.50;;;;;;5021074;28;20049;-94
2022/05/15 09:51:32;;;;;;;8.50;3.47;;;20.70;72.00;;;;;;5000288;28;20213;-93
2022/05/15 09:54:38;;;;;;;;;;;;;;;;;;;;;
2022/05/15 10:06:39;;;;;;;;;;;;;;;;;;;;;
2022/05/15 10:13:30;;;;;;;;;;;;;;;;;;;;;
2022/05/15 10:23:54;;;;;;;;;;;;;;;;;;;;;
2022/05/15 10:34:14;;;;;;;;;;;;;;;;;;;;;
2022/05/15 10:37:13;;;;;;;;;;;;;;;;;;;;;
2022/05/15 10:41:20;;;;;;;;;;;;;;;;;;;;;
2022/05/15 10:44:00;;;;;;;;;;;;;;;;;;;;;
2022/05/15 10:50:18;;;;;;;8.40;2.70;;;22.10;65.60;;;;;;4866272;29;20141;-95
2022/05/15 10:59:55;;;;;;;;;;;;;;;;;;;;;
2022/05/15 11:03:15;;;;;;;7.30;2.20;;;22.30;64.20;;;;;;4847926;29;20473;-93
2022/05/15 11:06:10;;;;;;;7.32;2.63;;;22.40;63.90;;;;;;4837233;29;20097;-94
2022/05/15 11:08:45;;;;;;;6.18;2.30;;;22.40;63.70;;;;;;4873480;29;20041;-94
2022/05/15 11:11:30;;;;;;;8.93;2.65;;;22.50;63.70;;;;;;4899082;29;20055;-89
2022/05/15 11:14:13;;;;;;;4.85;2.00;;;22.50;64.00;;;;;;4933756;28;20486;-94
2022/05/15 11:17:07;;;;;;;4.82;2.20;;;22.60;64.00;;;;;;4982179;28;20030;-92
2022/05/15 11:19:47;;;;;;;6.22;2.65;;;22.70;63.60;;;;;;4994291;28;20030;-90
2022/05/15 11:23:33;;;;;;;6.20;2.47;;;22.70;63.40;;;;;;5001449;28;20047;-90
2022/05/15 11:26:50;;;;;;;;;;;;;;;;;;;;;
2022/05/15 11:30:12;;;;;;;;;;;;;;;;;;;;;
2022/05/15 11:33:14;;;;;;;;;;;;;;;;;;;;;
2022/05/15 11:40:34;;;;;;;5.55;2.22;;;22.90;62.40;;;;;;4949966;29;20150;-93
2022/05/15 11:49:49;;;;;;;;;;;;;;;;;;;;;
2022/05/15 11:56:09;;;;;;;;;;;;;;;;;;;;;
2022/05/15 11:59:09;;;;;;;;;;;;;;;;;;;;;
2022/05/15 12:05:33;;;;;;;;;;;;;;;;;;;;;
2022/05/15 12:08:38;;;;;;;5.35;2.00;;;23.50;59.10;;;;;;5044701;28;20112;-94
2022/05/15 12:11:53;;;;;;;4.60;2.03;;;23.50;59.00;;;;;;5020418;28;20053;-93
2022/05/15 12:14:25;;;;;;;3.80;1.65;;;23.60;59.30;;;;;;5012079;28;20040;-93
2022/05/15 12:17:44;;;;;;;5.63;1.92;;;23.60;58.70;;;;;;5008676;28;20389;-92
2022/05/15 12:21:30;;;;;;;3.33;2.15;;;23.70;58.80;;;;;;4926874;29;20130;-94
2022/05/15 12:24:47;;;;;;;;;;;;;;;;;;;;;
2022/05/15 12:28:01;;;;;;;;;;;;;;;;;;;;;
2022/05/15 12:31:16;;;;;;;;;;;;;;;;;;;;;
2022/05/15 12:34:32;;;;;;;4.45;2.03;;;23.80;57.50;;;;;;5028225;28;20089;-92
2022/05/15 12:37:43;;;;;;;;;;;;;;;;;;;;;
2022/05/15 12:40:52;;;;;;;;;;;23.90;57.40;;;;;;5044825;28;20109;-94
2022/05/15 12:44:03;;;;;;;;;;;;;;;;;;;;;
2022/05/15 12:50:06;;;;;;;;;;;;;;;;;;;;;
2022/05/15 12:53:07;;;;;;;;;;;;;;;;;;;;;
2022/05/15 13:02:23;;;;;;;;;;;;;;;;;;;;;
2022/05/15 13:08:56;;;;;;;;;;;;;;;;;;;;;
2022/05/15 13:15:08;;;;;;;;;;;;;;;;;;;;;
2022/05/15 13:18:06;;;;;;;;;;;;;;;;;;;;;
2022/05/15 13:24:20;;;;;;;4.32;1.88;;;24.40;54.60;;;;;;5010060;28;20010;-93
2022/05/15 13:27:28;;;;;;;;;;;;;;;;;;;;;
2022/05/15 13:30:43;;;;;;;4.97;1.70;;;24.50;54.70;;;;;;5043440;28;20049;-93
2022/05/15 13:33:50;;;;;;;;;;;;;;;;;;;;;
2022/05/15 13:37:16;;;;;;;;;;;;;;;;;;;;;
2022/05/15 13:47:40;;;;;;;4.07;1.45;;;24.50;53.30;;;;;;4976442;28;20027;-91
2022/05/15 13:53:42;;;;;;;2.88;1.42;;;24.60;53.30;;;;;;4998448;28;20033;-90
2022/05/15 13:56:36;;;;;;;3.78;1.63;;;24.60;53.30;;;;;;5000799;28;20030;-89
2022/05/15 14:00:03;;;;;;;5.53;1.73;;;24.70;52.90;;;;;;5017257;28;20036;-90
2022/05/15 14:02:59;;;;;;;;;;;;;;;;;;;;;
2022/05/15 14:06:05;;;;;;;4.20;1.60;;;24.70;53.70;;;;;;5036491;28;20415;-89
2022/05/15 14:09:14;;;;;;;4.72;1.70;;;24.70;53.60;;;;;;5019451;28;20026;-91
2022/05/15 14:12:15;;;;;;;3.75;1.35;;;24.80;53.40;;;;;;4999160;28;20409;-90
2022/05/15 14:14:54;;;;;;;;;;;;;;;;;;;;;
2022/05/15 14:17:50;;;;;;;3.55;1.63;;;24.90;53.20;;;;;;5035636;28;20028;-90
2022/05/15 14:20:45;;;;;;;4.38;1.80;;;24.90;53.30;;;;;;5004560;28;20029;-90
2022/05/15 14:23:23;;;;;;;5.93;1.85;;;24.90;53.10;;;;;;4998122;28;20038;-90
2022/05/15 14:25:55;;;;;;;3.35;1.45;;;24.90;52.70;;;;;;5002545;28;20052;-89
2022/05/15 14:31:28;;;;;;;3.42;1.60;;;24.90;52.60;;;;;;5019539;28;20041;-87
2022/05/15 14:34:16;;;;;;;3.20;1.60;;;24.90;52.40;;;;;;5001057;28;20052;-90
2022/05/15 14:40:21;;;;;;;5.63;2.45;;;25.00;51.80;;;;;;5001070;28;20044;-91
2022/05/15 14:42:51;;;;;;;6.38;2.50;;;25.10;51.90;;;;;;5014809;28;20050;-89
2022/05/15 14:45:44;;;;;;;6.57;2.42;;;25.10;51.80;;;;;;5001096;28;20069;-88
2022/05/15 14:48:26;;;;;;;4.05;2.25;;;25.10;51.60;;;;;;5017342;28;20101;-90
2022/05/15 14:50:58;;;;;;;7.43;4.00;;;25.10;51.20;;;;;;5017705;28;20041;-89
2022/05/15 14:54:13;;;;;;;8.38;4.38;;;25.10;50.90;;;;;;5014623;28;20100;-90
2022/05/15 14:59:54;;;;;;;6.10;3.08;;;25.10;51.00;;;;;;4980921;28;20030;-90
2022/05/15 15:02:38;;;;;;;;;;;25.10;51.10;;;;;;4995280;28;20038;-89
2022/05/15 15:05:16;;;;;;;39.60;5.95;;;25.10;51.30;;;;;;4994932;28;19952;-86
2022/05/15 15:07:45;;;;;;;11.63;2.80;;;25.10;50.80;;;;;;4961630;28;20034;-86
2022/05/15 15:10:11;;;;;;;7.00;2.08;;;25.10;50.90;;;;;;5002080;28;20461;-86
2022/05/15 15:12:40;;;;;;;7.13;2.20;;;25.10;50.50;;;;;;4999000;28;20157;-85
2022/05/15 15:15:10;;;;;;;5.25;2.22;;;25.10;50.10;;;;;;5016734;28;20036;-88
2022/05/15 15:17:46;;;;;;;4.45;1.92;;;25.10;50.30;;;;;;5015616;28;20046;-87
2022/05/15 15:20:16;;;;;;;5.35;2.28;;;25.10;50.70;;;;;;5000156;28;20056;-86
2022/05/15 15:22:51;;;;;;;4.13;2.00;;;25.10;50.60;;;;;;4990351;28;20441;-87
2022/05/15 15:25:19;;;;;;;4.78;2.30;;;25.10;50.70;;;;;;5014725;28;20022;-86
2022/05/15 15:27:47;;;;;;;5.53;2.00;;;25.20;50.60;;;;;;5018124;28;20041;-87
2022/05/15 15:30:16;;;;;;;4.22;2.05;;;25.20;50.90;;;;;;5024868;28;20025;-90
2022/05/15 15:32:44;;;;;;;7.07;1.98;;;25.20;50.60;;;;;;5034989;28;20010;-85
2022/05/15 15:35:25;;;;;;;3.05;1.58;;;25.20;50.30;;;;;;5037200;28;20029;-88
2022/05/15 15:40:39;;;;;;;4.38;2.08;;;25.20;50.00;;;;;;5056654;28;20077;-88
2022/05/15 15:43:08;;;;;;;4.80;2.10;;;25.20;50.10;;;;;;5039435;28;20101;-88
2022/05/15 15:48:27;;;;;;;5.15;2.40;;;25.10;50.00;;;;;;5036078;28;20044;-89
2022/05/15 15:51:18;;;;;;;4.22;2.83;;;25.10;50.00;;;;;;4997102;28;20034;-87
2022/05/15 15:54:16;;;;;;;4.45;2.58;;;25.10;50.10;;;;;;4997972;28;20033;-88
2022/05/15 15:57:01;;;;;;;;;;;;;;;;;;;;;
2022/05/15 15:59:32;;;;;;;5.03;2.80;;;25.10;50.30;;;;;;5014093;28;20044;-88
2022/05/15 16:02:32;;;;;;;4.00;2.42;;;25.10;50.50;;;;;;5015581;28;20040;-91
2022/05/15 16:05:32;;;;;;;4.35;2.53;;;25.00;50.60;;;;;;5016206;28;20033;-89
2022/05/15 16:08:07;;;;;;;6.22;2.60;;;25.00;50.70;;;;;;5004702;28;20477;-87
2022/05/15 16:10:36;;;;;;;6.60;2.95;;;25.00;50.20;;;;;;5015432;28;20025;-90
2022/05/15 16:13:11;;;;;;;5.45;2.85;;;25.00;50.40;;;;;;5016325;28;20060;-86
2022/05/15 16:15:45;;;;;;;6.25;2.40;;;25.00;50.50;;;;;;5017604;28;20031;-89
2022/05/15 16:18:14;;;;;;;5.82;3.13;;;25.00;50.60;;;;;;5014775;28;20030;-87
2022/05/15 16:20:53;;;;;;;4.97;3.08;;;25.00;50.40;;;;;;5015408;28;20036;-86
2022/05/15 16:23:25;;;;;;;6.65;3.10;;;25.00;50.40;;;;;;5015634;28;20025;-87
2022/05/15 16:25:54;;;;;;;4.97;2.67;;;25.00;50.40;;;;;;5018563;28;20022;-88
2022/05/15 16:28:25;;;;;;;5.15;2.40;;;25.00;50.50;;;;;;5019392;28;20070;-89
2022/05/15 16:30:53;;;;;;;5.10;3.00;;;25.00;50.50;;;;;;5002648;28;20121;-90
2022/05/15 16:33:49;;;;;;;5.55;2.55;;;25.10;50.70;;;;;;5019199;28;20022;-88
2022/05/15 16:36:23;;;;;;;5.13;2.55;;;25.00;50.70;;;;;;4997204;28;20477;-89
2022/05/15 16:39:00;;;;;;;7.28;2.95;;;25.10;50.70;;;;;;4999446;28;20018;-88
2022/05/15 16:41:36;;;;;;;4.53;2.40;;;25.00;50.60;;;;;;4969560;28;20085;-89
2022/05/15 16:44:12;;;;;;;6.07;2.72;;;25.00;50.40;;;;;;5015922;28;20030;-88
2022/05/15 16:46:41;;;;;;;4.20;2.10;;;25.00;51.20;;;;;;5005711;28;20192;-90
2022/05/15 16:49:07;;;;;;;5.15;2.10;;;24.90;50.60;;;;;;5018296;28;20025;-86
2022/05/15 18:08:13;;;;;;;3.92;1.88;;;24.10;48.40;;;;;;5103717;23;20033;-93
2022/05/15 18:10:50;;;;;;;5.47;2.03;;;24.10;48.50;;;;;;4891667;29;20055;-95
2022/05/15 18:13:51;;;;;;;6.32;2.35;;;24.00;48.70;;;;;;4914153;29;20046;-94
2022/05/15 18:16:28;;;;;;;4.07;1.90;;;24.00;48.90;;;;;;4903892;29;20429;-91
2022/05/15 18:19:13;;;;;;;4.85;1.90;;;23.90;48.60;;;;;;4874208;29;20465;-94
2022/05/15 18:22:04;;;;;;;5.93;2.10;;;23.90;48.60;;;;;;4923248;29;20031;-93
2022/05/15 18:27:46;;;;;;;5.00;2.08;;;23.80;49.00;;;;;;4916401;29;20032;-96
2022/05/15 18:30:18;;;;;;;5.97;2.15;;;23.70;49.00;;;;;;4922840;29;20125;-93
2022/05/15 18:33:04;;;;;;;;;;;;;;;;;;;;;
2022/05/15 18:35:35;;;;;;;3.90;2.05;;;23.60;49.10;;;;;;4937013;29;20092;-93
2022/05/15 20:26:38;;;;;;;;;;;;;;;;;;;;;
2022/05/15 22:20:56;;;;;;;;;;;;;;;;;;;;;
2022/05/15 22:27:30;;;;;;;5.68;2.63;;;19.90;62.10;;;;;;6233113;22;20003;-92
2022/05/15 22:31:37;;;;;;;;;;;;;;;;;;;;;
2022/05/15 22:34:14;;;;;;;6.70;2.40;;;19.70;62.90;;;;;;6168492;22;20361;-93
2022/05/15 22:38:00;;;;;;;;;;;;;;;;;;;;;
2022/05/15 22:41:10;;;;;;;;;;;;;;;;;;;;;
2022/05/15 22:47:38;;;;;;;;;;;;;;;;;;;;;
2022/05/15 22:51:16;;;;;;;;;;;;;;;;;;;;;
2022/05/15 22:57:49;;;;;;;10.48;2.92;;;19.40;63.20;;;;;;6296534;22;19999;-94
2022/05/15 23:01:26;;;;;;;;;;;;;;;;;;;;;
2022/05/15 23:04:01;;;;;;;;;;;;;;;;;;;;;
2022/05/15 23:13:19;;;;;;;;;;;;;;;;;;;;;
2022/05/15 23:23:06;;;;;;;;;;;;;;;;;;;;;
2022/05/15 23:26:09;;;;;;;;;;;;;;;;;;;;;
2022/05/15 23:28:50;;;;;;;6.63;2.47;;;19.00;64.60;;;;;;6256211;22;20088;-92
2022/05/15 23:31:48;;;;;;;6.57;2.38;;;18.90;64.70;;;;;;6254408;22;19996;-93
2022/05/15 23:34:41;;;;;;;;;;;;;;;;;;;;;
2022/05/15 23:38:04;;;;;;;;;;;;;;;;;;;;;
2022/05/15 23:41:20;;;;;;;8.85;2.72;;;18.80;65.40;;;;;;6282523;22;20038;-93
2022/05/15 23:44:31;;;;;;;;;;;;;;;;;;;;;
2022/05/15 23:47:58;;;;;;;;;;;;;;;;;;;;;
2022/05/15 23:51:02;;;;;;;8.05;3.38;;;18.70;65.80;;;;;;6304544;22;20019;-94
2022/05/15 23:54:12;;;;;;;;;;;;;;;;;;;;;
2022/05/15 23:56:47;;;;;;;;;;;;;;;;;;;;;
